createdAt,value
2022-07-31T04:01:24.329Z,10.40
2022-07-31T04:04:11.962Z,10.60
2022-07-31T04:06:59.035Z,10.60
2022-07-31T04:09:46.143Z,10.50
2022-07-31T04:12:33.150Z,10.40
2022-07-31T04:15:19.963Z,10.50
2022-07-31T04:18:08.241Z,10.50
2022-07-31T04:20:55.251Z,10.40
2022-07-31T04:23:42.237Z,10.40
2022-07-31T04:26:35.844Z,10.40
2022-07-31T04:29:22.844Z,10.40
2022-07-31T04:32:10.028Z,10.50
2022-07-31T04:34:59.158Z,10.50
2022-07-31T04:37:48.055Z,10.50
2022-07-31T04:40:35.875Z,10.50
2022-07-31T04:43:22.646Z,10.50
2022-07-31T04:46:17.539Z,10.60
2022-07-31T04:49:05.273Z,10.60
2022-07-31T04:51:54.175Z,10.70
2022-07-31T04:54:41.495Z,10.70
2022-07-31T04:57:28.537Z,10.90
2022-07-31T05:00:16.076Z,11.00
2022-07-31T05:03:03.373Z,11.10
2022-07-31T05:05:50.374Z,11.10
2022-07-31T05:08:38.654Z,11.20
2022-07-31T05:11:26.003Z,11.40
2022-07-31T05:14:16.773Z,11.40
2022-07-31T05:17:04.232Z,11.60
2022-07-31T05:19:51.419Z,11.70
2022-07-31T05:22:38.270Z,11.80
2022-07-31T05:25:26.903Z,11.90
2022-07-31T05:28:13.493Z,12.00
2022-07-31T05:31:02.008Z,12.10
2022-07-31T05:33:50.431Z,12.30
2022-07-31T05:36:37.346Z,12.40
2022-07-31T05:39:25.375Z,12.60
2022-07-31T05:42:13.850Z,12.70
2022-07-31T05:45:00.827Z,12.90
2022-07-31T05:47:47.925Z,13.10
2022-07-31T05:50:35.482Z,13.20
2022-07-31T05:53:22.873Z,13.40
2022-07-31T05:56:10.681Z,13.60
2022-07-31T05:58:58.991Z,13.80
2022-07-31T06:01:46.574Z,13.90
2022-07-31T06:04:33.978Z,14.00
2022-07-31T06:07:21.235Z,14.20
2022-07-31T06:10:08.750Z,14.40
2022-07-31T06:12:56.597Z,14.60
2022-07-31T06:15:49.172Z,14.70
2022-07-31T06:18:37.027Z,14.80
2022-07-31T06:21:26.526Z,15.00
2022-07-31T06:24:17.382Z,15.20
2022-07-31T06:27:05.938Z,15.50
2022-07-31T06:29:57.973Z,15.70
2022-07-31T06:32:46.441Z,16.00
2022-07-31T06:35:33.972Z,16.40
2022-07-31T06:38:24.624Z,17.00
2022-07-31T06:41:11.695Z,17.40
2022-07-31T06:43:58.730Z,17.60
2022-07-31T06:46:49.019Z,17.70
2022-07-31T06:49:38.051Z,17.50
2022-07-31T06:52:27.072Z,17.60
2022-07-31T06:55:14.406Z,17.60
2022-07-31T06:58:01.428Z,17.80
2022-07-31T07:00:48.831Z,18.00
2022-07-31T07:03:37.294Z,18.00
2022-07-31T07:06:25.864Z,18.30
2022-07-31T07:09:12.810Z,18.40
2022-07-31T07:11:59.905Z,18.70
2022-07-31T07:14:46.968Z,18.90
2022-07-31T07:17:33.891Z,19.20
2022-07-31T07:20:22.098Z,19.50
2022-07-31T07:23:10.645Z,19.60
2022-07-31T07:25:57.909Z,19.70
2022-07-31T07:28:45.707Z,19.80
2022-07-31T07:31:33.076Z,20.20
2022-07-31T07:34:20.196Z,20.60
2022-07-31T07:37:07.031Z,20.90
2022-07-31T07:39:56.042Z,21.10
2022-07-31T07:42:43.129Z,21.40
2022-07-31T07:45:30.108Z,21.60
2022-07-31T07:48:17.568Z,21.60
2022-07-31T07:51:04.784Z,21.80
2022-07-31T07:53:51.687Z,22.20
2022-07-31T07:56:40.302Z,22.90
2022-07-31T07:59:27.461Z,23.10
2022-07-31T08:02:15.556Z,23.80
2022-07-31T08:05:02.950Z,24.70
2022-07-31T08:07:50.302Z,25.20
2022-07-31T08:10:39.384Z,26.30
2022-07-31T08:13:27.988Z,27.40
2022-07-31T08:16:15.215Z,28.20
2022-07-31T08:19:02.128Z,28.60
2022-07-31T08:21:49.369Z,29.10
2022-07-31T08:24:36.473Z,29.50
2022-07-31T08:27:39.445Z,29.90
2022-07-31T08:30:31.050Z,29.90
2022-07-31T08:33:18.345Z,30.50
2022-07-31T08:36:09.268Z,31.10
2022-07-31T08:38:56.109Z,31.30
2022-07-31T08:41:43.354Z,31.60
2022-07-31T08:44:31.182Z,32.10
2022-07-31T08:47:19.884Z,32.10
2022-07-31T08:50:08.465Z,31.70
2022-07-31T08:52:58.168Z,31.50
2022-07-31T08:55:56.763Z,32.10
2022-07-31T08:58:45.819Z,32.50
2022-07-31T09:01:35.464Z,31.80
2022-07-31T09:04:24.733Z,32.20
2022-07-31T09:07:15.830Z,32.60
2022-07-31T09:10:02.750Z,32.80
2022-07-31T09:12:50.114Z,32.00
2022-07-31T09:15:37.731Z,31.90
2022-07-31T09:18:25.248Z,32.40
2022-07-31T09:21:14.220Z,32.80
2022-07-31T09:24:01.279Z,33.10
2022-07-31T09:26:48.445Z,33.20
2022-07-31T09:29:36.840Z,32.60
2022-07-31T09:32:24.773Z,32.80
2022-07-31T09:35:13.864Z,32.80
2022-07-31T09:38:04.594Z,32.80
2022-07-31T09:40:57.649Z,32.60
2022-07-31T09:43:51.830Z,32.70
2022-07-31T09:46:44.121Z,31.70
2022-07-31T09:49:35.489Z,31.20
2022-07-31T09:52:24.235Z,32.10
2022-07-31T09:55:16.965Z,32.20
2022-07-31T09:58:04.430Z,32.40
2022-07-31T10:00:54.151Z,31.10
2022-07-31T10:03:42.416Z,31.50
2022-07-31T10:06:33.959Z,32.00
2022-07-31T10:09:22.778Z,31.90
2022-07-31T10:12:18.613Z,31.80
2022-07-31T10:15:08.834Z,31.50
2022-07-31T10:17:56.833Z,32.50
2022-07-31T10:20:49.846Z,32.70
2022-07-31T10:23:42.425Z,32.80
2022-07-31T10:26:57.846Z,32.20
2022-07-31T10:29:40.543Z,31.70
2022-07-31T10:32:27.941Z,30.70
2022-07-31T10:35:15.607Z,30.40
2022-07-31T10:38:09.128Z,29.90
2022-07-31T10:41:03.924Z,29.20
2022-07-31T10:43:56.861Z,29.00
2022-07-31T10:46:45.455Z,28.90
2022-07-31T10:49:43.195Z,28.90
2022-07-31T10:52:31.896Z,28.70
2022-07-31T10:55:22.323Z,28.20
2022-07-31T10:58:10.998Z,27.40
2022-07-31T11:01:07.149Z,27.70
2022-07-31T11:04:01.937Z,27.90
2022-07-31T11:06:51.586Z,28.80
2022-07-31T11:09:50.218Z,29.20
2022-07-31T11:12:38.999Z,29.70
2022-07-31T11:15:26.772Z,30.50
2022-07-31T11:18:25.048Z,30.90
2022-07-31T11:21:37.495Z,31.70
2022-07-31T11:24:23.955Z,32.50
2022-07-31T11:27:10.843Z,32.30
2022-07-31T11:30:10.678Z,32.00
2022-07-31T11:33:00.151Z,32.70
2022-07-31T11:35:47.520Z,32.40
2022-07-31T11:38:36.684Z,32.20
2022-07-31T11:41:30.370Z,32.50
2022-07-31T11:44:28.171Z,31.90
2022-07-31T11:48:09.609Z,30.70
2022-07-31T11:50:22.465Z,30.30
2022-07-31T11:53:10.934Z,30.30
2022-07-31T11:56:01.258Z,30.70
2022-07-31T11:58:49.696Z,31.20
2022-07-31T12:01:36.417Z,31.70
2022-07-31T12:04:27.907Z,32.40
2022-07-31T12:07:15.888Z,32.30
2022-07-31T12:10:03.865Z,31.70
2022-07-31T12:12:52.678Z,30.60
2022-07-31T12:15:39.873Z,30.10
2022-07-31T12:18:27.752Z,29.60
2022-07-31T12:21:14.913Z,29.50
2022-07-31T12:24:02.549Z,30.20
2022-07-31T12:26:52.656Z,30.50
2022-07-31T12:29:41.125Z,30.60
2022-07-31T12:32:29.344Z,29.80
2022-07-31T12:35:56.377Z,29.20
2022-07-31T12:38:47.512Z,28.90
2022-07-31T12:41:43.575Z,28.90
2022-07-31T12:44:30.668Z,28.90
2022-07-31T12:47:26.293Z,29.40
2022-07-31T12:50:13.303Z,30.00
2022-07-31T12:53:02.526Z,30.70
2022-07-31T12:55:52.040Z,30.00
2022-07-31T12:58:39.054Z,30.60
2022-07-31T13:01:26.425Z,30.90
2022-07-31T13:04:18.744Z,31.10
2022-07-31T13:07:07.687Z,31.60
2022-07-31T13:10:21.181Z,30.20
2022-07-31T13:13:01.934Z,29.40
2022-07-31T13:15:48.780Z,28.90
2022-07-31T13:18:35.964Z,28.50
2022-07-31T13:21:25.682Z,28.40
2022-07-31T13:24:14.217Z,28.40
2022-07-31T13:27:01.553Z,28.40
2022-07-31T13:29:48.745Z,29.20
2022-07-31T13:32:35.677Z,30.00
2022-07-31T13:35:27.846Z,30.10
2022-07-31T13:38:17.577Z,30.10
2022-07-31T13:41:28.005Z,30.50
2022-07-31T13:44:15.248Z,30.50
2022-07-31T13:47:02.411Z,30.40
2022-07-31T13:49:50.051Z,30.60
2022-07-31T13:52:37.156Z,30.80
2022-07-31T13:55:25.509Z,31.00
2022-07-31T13:58:12.699Z,30.20
2022-07-31T14:01:04.322Z,30.50
2022-07-31T14:03:51.900Z,30.70
2022-07-31T14:06:39.088Z,30.60
2022-07-31T14:09:26.903Z,30.10
2022-07-31T14:12:15.327Z,30.10
2022-07-31T14:15:04.444Z,28.90
2022-07-31T14:17:51.490Z,28.80
2022-07-31T14:20:38.678Z,28.90
2022-07-31T14:23:26.377Z,28.90
2022-07-31T14:26:20.363Z,29.30
2022-07-31T14:29:09.079Z,29.80
2022-07-31T14:31:55.940Z,29.70
2022-07-31T14:34:43.240Z,30.00
2022-07-31T14:37:30.122Z,29.60
2022-07-31T14:40:17.712Z,29.80
2022-07-31T14:43:04.722Z,30.30
2022-07-31T14:45:53.083Z,30.80
2022-07-31T14:48:39.989Z,31.00
2022-07-31T14:51:27.268Z,30.90
2022-07-31T14:54:15.847Z,31.20
2022-07-31T14:57:03.025Z,31.00
2022-07-31T14:59:50.108Z,31.10
2022-07-31T15:02:38.638Z,31.20
2022-07-31T15:06:41.018Z,31.40
2022-07-31T15:08:33.372Z,31.70
2022-07-31T15:11:20.549Z,31.80
2022-07-31T15:14:07.572Z,31.60
2022-07-31T15:16:54.715Z,31.60
2022-07-31T15:19:43.568Z,31.40
2022-07-31T15:22:30.845Z,30.50
2022-07-31T15:25:17.729Z,30.30
2022-07-31T15:28:04.728Z,30.70
2022-07-31T15:30:51.857Z,30.30
2022-07-31T15:33:39.165Z,29.90
2022-07-31T15:36:29.595Z,29.40
2022-07-31T15:39:16.833Z,29.20
2022-07-31T15:42:04.105Z,29.00
2022-07-31T15:44:51.070Z,29.40
2022-07-31T15:47:38.823Z,29.60
2022-07-31T15:50:26.318Z,30.00
2022-07-31T15:53:14.753Z,30.00
2022-07-31T15:56:01.735Z,29.80
2022-07-31T15:58:52.142Z,29.80
2022-07-31T16:01:42.196Z,30.00
2022-07-31T16:04:31.417Z,29.90
2022-07-31T16:08:31.904Z,29.80
2022-07-31T16:10:26.873Z,29.80
2022-07-31T16:13:13.847Z,29.80
2022-07-31T16:16:01.052Z,29.60
2022-07-31T16:18:47.959Z,29.30
2022-07-31T16:21:35.267Z,29.20
2022-07-31T16:24:22.959Z,28.30
2022-07-31T16:27:11.498Z,28.80
2022-07-31T16:30:01.705Z,29.10
2022-07-31T16:32:49.898Z,29.10
2022-07-31T16:35:37.028Z,28.60
2022-07-31T16:38:24.297Z,28.20
2022-07-31T16:41:11.750Z,27.70
2022-07-31T16:44:00.463Z,27.70
2022-07-31T16:46:51.374Z,27.60
2022-07-31T16:49:41.962Z,27.80
2022-07-31T16:52:29.275Z,28.00
2022-07-31T16:55:16.343Z,27.70
2022-07-31T16:58:03.748Z,27.40
2022-07-31T17:00:53.213Z,27.50
2022-07-31T17:04:01.887Z,27.50
2022-07-31T17:06:48.361Z,27.40
2022-07-31T17:09:35.574Z,27.50
2022-07-31T17:12:22.526Z,27.60
2022-07-31T17:15:14.021Z,27.50
2022-07-31T17:18:02.619Z,27.40
2022-07-31T17:20:49.381Z,27.30
2022-07-31T17:23:44.159Z,27.10
2022-07-31T17:26:31.860Z,27.20
2022-07-31T17:29:19.055Z,26.90
2022-07-31T17:32:06.675Z,26.20
2022-07-31T17:34:55.360Z,26.00
2022-07-31T17:37:42.557Z,25.80
2022-07-31T17:40:43.133Z,25.40
2022-07-31T17:43:45.530Z,25.40
2022-07-31T17:46:47.949Z,25.30
2022-07-31T17:49:44.965Z,25.20
2022-07-31T17:52:33.602Z,25.20
2022-07-31T17:55:20.605Z,24.90
2022-07-31T17:58:07.773Z,25.10
2022-07-31T18:00:55.612Z,25.10
2022-07-31T18:03:42.752Z,25.20
2022-07-31T18:06:29.887Z,25.20
2022-07-31T18:09:20.627Z,25.10
2022-07-31T18:12:13.436Z,25.00
2022-07-31T18:15:02.486Z,24.90
2022-07-31T18:17:50.908Z,24.80
2022-07-31T18:20:38.276Z,24.60
2022-07-31T18:23:29.493Z,24.60
2022-07-31T18:26:20.487Z,24.60
2022-07-31T18:29:07.232Z,24.60
2022-07-31T18:31:54.407Z,24.30
2022-07-31T18:34:41.296Z,24.20
2022-07-31T18:37:29.154Z,24.00
2022-07-31T18:40:16.522Z,23.90
2022-07-31T18:43:06.282Z,23.80
2022-07-31T18:45:53.442Z,23.60
2022-07-31T18:48:40.423Z,23.40
2022-07-31T18:51:28.011Z,23.30
2022-07-31T18:54:16.894Z,23.10
2022-07-31T18:57:04.788Z,23.00
2022-07-31T18:59:53.132Z,22.90
2022-07-31T19:02:40.289Z,22.80
2022-07-31T19:05:28.189Z,22.80
2022-07-31T19:08:15.368Z,22.70
2022-07-31T19:11:02.533Z,22.70
2022-07-31T19:13:49.677Z,22.70
2022-07-31T19:16:38.104Z,22.70
2022-07-31T19:19:25.899Z,22.60
2022-07-31T19:22:18.837Z,22.50
2022-07-31T19:25:06.470Z,22.40
2022-07-31T19:27:53.597Z,22.40
2022-07-31T19:30:46.703Z,22.30
2022-07-31T19:33:35.625Z,22.20
2022-07-31T19:36:22.906Z,22.00
2022-07-31T19:39:12.867Z,21.80
2022-07-31T19:42:11.397Z,21.70
2022-07-31T19:44:59.782Z,21.60
2022-07-31T19:47:46.800Z,21.40
2022-07-31T19:50:35.514Z,21.30
2022-07-31T19:53:22.755Z,21.10
2022-07-31T19:56:10.882Z,21.00
2022-07-31T19:58:57.809Z,20.90
2022-07-31T20:01:45.018Z,20.70
2022-07-31T20:04:32.143Z,20.60
2022-07-31T20:07:21.063Z,20.50
2022-07-31T20:10:10.190Z,20.30
2022-07-31T20:12:57.231Z,20.20
2022-07-31T20:15:51.170Z,20.10
2022-07-31T20:18:39.740Z,20.00
2022-07-31T20:21:26.986Z,19.80
2022-07-31T20:24:25.541Z,19.70
2022-07-31T20:27:12.633Z,19.60
2022-07-31T20:29:59.831Z,19.50
2022-07-31T20:32:48.610Z,19.30
2022-07-31T20:35:48.515Z,19.20
2022-07-31T20:38:37.064Z,19.10
2022-07-31T20:41:25.468Z,19.00
2022-07-31T20:44:12.442Z,18.80
2022-07-31T20:47:00.005Z,18.80
2022-07-31T20:49:46.905Z,18.80
2022-07-31T20:52:34.096Z,18.70
2022-07-31T20:55:21.327Z,18.50
2022-07-31T20:58:09.681Z,18.40
2022-07-31T21:00:56.976Z,18.40
2022-07-31T21:03:46.489Z,18.30
2022-07-31T21:06:33.634Z,18.20
2022-07-31T21:09:20.578Z,18.20
2022-07-31T21:12:08.834Z,18.10
2022-07-31T21:14:57.705Z,18.00
2022-07-31T21:17:44.971Z,18.00
2022-07-31T21:20:50.779Z,17.90
2022-07-31T21:23:38.881Z,17.80
2022-07-31T21:26:28.373Z,17.70
2022-07-31T21:29:15.922Z,17.70
2022-07-31T21:32:07.597Z,17.60
2022-07-31T21:34:55.669Z,17.50
2022-07-31T21:37:43.713Z,17.40
2022-07-31T21:40:36.216Z,17.30
2022-07-31T21:43:23.939Z,17.30
2022-07-31T21:46:16.285Z,17.20
2022-07-31T21:49:07.123Z,17.10
2022-07-31T21:51:54.767Z,17.10
2022-07-31T21:54:41.687Z,17.00
2022-07-31T21:57:28.723Z,16.90
2022-07-31T22:00:36.847Z,16.90
2022-07-31T22:03:25.495Z,16.80
2022-07-31T22:06:31.570Z,16.80
2022-07-31T22:09:19.114Z,16.70
2022-07-31T22:12:06.621Z,16.60
2022-07-31T22:14:54.678Z,16.50
2022-07-31T22:17:41.518Z,16.50
2022-07-31T22:20:28.279Z,16.40
2022-07-31T22:23:17.319Z,16.30
2022-07-31T22:26:05.129Z,16.20
2022-07-31T22:28:53.286Z,16.10
2022-07-31T22:31:40.736Z,16.10
2022-07-31T22:34:38.169Z,16.00
2022-07-31T22:37:26.923Z,16.00
2022-07-31T22:40:17.930Z,16.00
2022-07-31T22:43:08.279Z,16.00
2022-07-31T22:46:14.769Z,15.90
2022-07-31T22:49:02.537Z,15.90
2022-07-31T22:51:49.828Z,15.80
2022-07-31T22:54:36.938Z,15.80
2022-07-31T22:57:25.104Z,15.80
2022-07-31T23:00:14.763Z,15.70
2022-07-31T23:03:01.729Z,15.70
2022-07-31T23:06:28.165Z,15.60
2022-07-31T23:08:56.171Z,15.60
2022-07-31T23:11:43.193Z,15.50
2022-07-31T23:14:31.453Z,15.40
2022-07-31T23:17:22.462Z,15.30
2022-07-31T23:20:11.039Z,15.30
2022-07-31T23:22:58.385Z,15.20
2022-07-31T23:25:45.542Z,15.20
2022-07-31T23:28:32.518Z,15.10
2022-07-31T23:31:21.599Z,15.10
2022-07-31T23:34:09.721Z,15.10
2022-07-31T23:36:56.630Z,15.00
2022-07-31T23:39:43.542Z,15.00
2022-07-31T23:42:38.974Z,15.00
2022-07-31T23:45:26.392Z,15.00
2022-07-31T23:48:16.697Z,14.90
2022-07-31T23:51:03.991Z,14.90
2022-07-31T23:53:51.269Z,14.80
2022-07-31T23:56:38.462Z,14.80
2022-07-31T23:59:25.740Z,14.70
